Time;durP1;ratioP1;P1;durP2;ratioP2;P2;SDS_P1;SDS_P2;PMS_P1;PMS_P2;Temp;Humidity;BMP_temperature;BMP_pressure;BME280_temperature;BME280_humidity;BME280_pressure;Samples;Min_cycle;Max_cycle;Signal;HPM_P1;HPM_P2
2021/05/22 00:01:52;;;;;;;5.23;1.47;;;;;;;10.13;67.83;99985.41;5135102;27;20064;-39
2021/05/22 00:04:17;;;;;;;5.10;1.77;;;;;;;10.14;66.65;99995.16;5135398;27;20026;-40
2021/05/22 00:06:42;;;;;;;5.70;1.83;;;;;;;10.10;66.31;99994.81;5135800;27;20427;-39
2021/05/22 00:09:08;;;;;;;6.00;1.60;;;;;;;10.06;67.06;99994.53;5135536;27;20034;-40
2021/05/22 00:11:36;;;;;;;4.50;1.47;;;;;;;10.06;66.87;99997.22;5135131;27;20351;-40
2021/05/22 00:14:05;;;;;;;7.35;1.63;;;;;;;10.02;66.62;99985.28;5134978;27;20347;-40
2021/05/22 00:16:31;;;;;;;6.38;1.70;;;;;;;10.01;66.13;99991.75;5135570;27;20027;-40
2021/05/22 00:18:56;;;;;;;7.22;1.85;;;;;;;10.04;66.03;99985.84;5135287;27;20031;-40
2021/05/22 00:21:22;;;;;;;7.80;1.67;;;;;;;10.06;66.11;99972.09;5135343;27;20031;-39
2021/05/22 00:23:48;;;;;;;5.55;1.58;;;;;;;10.05;66.22;99965.03;5135621;27;20095;-40
2021/05/22 00:26:13;;;;;;;4.63;1.27;;;;;;;10.01;66.38;99970.16;5133792;27;20030;-40
2021/05/22 00:28:38;;;;;;;4.00;1.27;;;;;;;10.03;65.73;99973.41;5135403;27;20364;-39
2021/05/22 00:31:04;;;;;;;8.13;1.70;;;;;;;10.04;66.22;99966.13;5135451;27;20019;-40
2021/05/22 00:33:29;;;;;;;5.23;1.30;;;;;;;10.09;65.25;99970.78;5134854;27;20023;-40
2021/05/22 00:35:55;;;;;;;7.03;1.80;;;;;;;10.05;65.72;99960.47;5135859;27;20035;-39
2021/05/22 00:38:20;;;;;;;4.88;1.50;;;;;;;10.04;64.85;99958.81;5135326;27;20023;-39
2021/05/22 00:40:46;;;;;;;7.33;2.13;;;;;;;9.97;65.33;99958.19;5135361;27;20027;-40
2021/05/22 00:43:11;;;;;;;6.17;1.60;;;;;;;9.99;65.21;99957.94;5134729;27;20027;-40
2021/05/22 00:45:37;;;;;;;5.77;1.63;;;;;;;10.02;65.42;99960.16;5135079;27;20033;-40
2021/05/22 00:48:03;;;;;;;7.07;1.60;;;;;;;10.03;65.38;99957.19;5134964;27;20043;-40
2021/05/22 00:50:32;;;;;;;9.55;1.80;;;;;;;10.03;66.49;99962.59;5134520;27;20035;-39
2021/05/22 00:52:58;;;;;;;7.50;1.63;;;;;;;10.04;65.62;99956.13;5134167;27;20027;-40
2021/05/22 00:55:24;;;;;;;;;;;;;;;10.09;65.38;99946.47;5135395;27;20451;-39
2021/05/22 00:57:50;;;;;;;6.30;2.03;;;;;;;10.00;64.33;99933.41;5134125;27;19911;-40
2021/05/22 01:00:19;;;;;;;6.28;1.80;;;;;;;10.07;65.66;99946.72;5134194;27;20023;-39
2021/05/22 01:02:46;;;;;;;8.38;1.67;;;;;;;10.06;65.30;99940.50;5134133;27;20034;-40
2021/05/22 01:05:12;;;;;;;5.68;1.90;;;;;;;10.06;65.78;99937.81;5133923;27;20024;-40
2021/05/22 01:07:38;;;;;;;6.68;1.52;;;;;;;10.06;65.38;99935.09;5134251;27;20024;-40
2021/05/22 01:10:05;;;;;;;6.55;2.00;;;;;;;10.05;65.58;99938.03;5134486;27;20102;-40
2021/05/22 01:12:34;;;;;;;5.75;1.70;;;;;;;10.02;66.49;99927.75;5134301;27;20066;-40
2021/05/22 01:15:06;;;;;;;3.95;1.58;;;;;;;10.04;65.61;99942.63;5134169;27;20031;-39
2021/05/22 01:17:33;;;;;;;5.53;1.42;;;;;;;10.05;65.25;99944.28;5134281;27;20168;-40
2021/05/22 01:20:05;;;;;;;5.95;1.75;;;;;;;10.09;65.38;99944.56;5134402;27;20072;-40
2021/05/22 01:22:37;;;;;;;5.07;1.52;;;;;;;10.09;65.19;99933.78;5134111;27;20028;-39
2021/05/22 01:25:39;;;;;;;4.55;1.40;;;;;;;10.13;65.73;99931.41;5133718;28;20096;-40
2021/05/22 01:28:07;;;;;;;5.63;1.52;;;;;;;10.09;65.47;99922.16;5134617;28;20024;-40
2021/05/22 01:30:33;;;;;;;8.85;1.65;;;;;;;10.12;66.32;99937.88;5134725;27;20034;-40
2021/05/22 01:32:59;;;;;;;2.60;1.35;;;;;;;10.10;65.84;99929.19;5134037;27;20054;-40
2021/05/22 01:35:24;;;;;;;3.95;1.20;;;;;;;10.05;66.10;99930.78;5134397;27;20106;-40
2021/05/22 01:37:50;;;;;;;4.13;1.30;;;;;;;10.10;66.55;99926.47;5133986;27;20051;-40
2021/05/22 01:40:15;;;;;;;3.60;1.35;;;;;;;10.10;65.89;99921.06;5134128;27;20034;-40
2021/05/22 01:42:41;;;;;;;7.03;1.87;;;;;;;10.07;65.70;99908.91;5133647;27;20033;-40
2021/05/22 01:45:10;;;;;;;;;;;;;;;10.12;66.08;99916.25;5134331;27;20066;-39
2021/05/22 01:47:36;;;;;;;3.92;1.48;;;;;;;10.06;65.84;99915.38;5133649;28;20294;-40
2021/05/22 01:50:05;;;;;;;6.10;2.03;;;;;;;10.08;66.25;99915.94;5134179;27;20045;-40
2021/05/22 01:52:33;;;;;;;6.60;1.80;;;;;;;10.11;65.84;99928.13;5133828;27;20030;-39
2021/05/22 01:55:02;;;;;;;6.43;1.15;;;;;;;10.10;66.08;99912.97;5134205;27;20065;-40
2021/05/22 01:57:28;;;;;;;4.55;1.60;;;;;;;10.13;65.89;99912.47;5133517;27;20106;-40
2021/05/22 01:59:53;;;;;;;4.25;1.25;;;;;;;10.15;66.03;99921.13;5133586;28;20099;-39
2021/05/22 02:02:22;;;;;;;4.07;1.10;;;;;;;10.14;66.59;99911.41;5134148;27;20023;-39
2021/05/22 02:04:49;;;;;;;4.93;1.40;;;;;;;10.14;66.19;99928.44;5136806;27;20019;-40
2021/05/22 02:07:21;;;;;;;3.83;1.20;;;;;;;10.13;65.99;99924.09;5137709;27;20032;-39
2021/05/22 02:09:48;;;;;;;4.70;1.45;;;;;;;10.13;66.20;99923.28;5137927;27;20024;-39
2021/05/22 02:12:14;;;;;;;4.90;1.20;;;;;;;10.12;65.90;99938.69;5137518;27;20042;-40
2021/05/22 02:14:42;;;;;;;5.85;1.20;;;;;;;10.12;66.54;99927.88;5137855;27;20035;-40
2021/05/22 02:17:09;;;;;;;6.35;1.42;;;;;;;10.14;66.26;99930.31;5137949;27;20084;-39
2021/05/22 02:19:37;;;;;;;7.40;1.27;;;;;;;10.18;66.24;99917.94;5137901;27;20042;-40
2021/05/22 02:22:07;;;;;;;4.00;1.30;;;;;;;10.18;65.92;99923.34;5137336;27;20028;-40
2021/05/22 02:24:33;;;;;;;4.80;1.23;;;;;;;10.19;65.99;99920.38;5136895;27;20038;-40
2021/05/22 02:26:59;;;;;;;3.93;1.17;;;;;;;10.20;66.34;99905.00;5137578;27;20114;-40
2021/05/22 02:29:26;;;;;;;7.07;1.00;;;;;;;10.18;66.45;99902.56;5137214;27;20030;-40
2021/05/22 02:31:53;;;;;;;3.03;0.90;;;;;;;10.16;66.60;99909.28;5136847;27;20467;-40
2021/05/22 02:34:22;;;;;;;6.75;1.13;;;;;;;10.16;66.43;99902.00;5137938;27;20066;-40
2021/05/22 02:36:50;;;;;;;2.78;0.88;;;;;;;10.19;66.57;99911.47;5136815;27;20400;-39
2021/05/22 02:39:17;;;;;;;7.32;1.38;;;;;;;10.20;66.18;99907.69;5137142;27;20076;-40
2021/05/22 02:41:43;;;;;;;3.67;1.00;;;;;;;10.22;65.71;99905.59;5137205;27;20027;-40
2021/05/22 02:44:12;;;;;;;3.30;1.00;;;;;;;10.23;66.01;99924.22;5135983;27;20436;-40
2021/05/22 02:46:41;;;;;;;4.55;0.95;;;;;;;10.25;66.13;99905.94;5136410;27;20429;-40
2021/05/22 02:49:09;;;;;;;5.93;1.13;;;;;;;10.25;66.17;99905.94;5137128;27;20031;-39
2021/05/22 02:51:38;;;;;;;3.30;1.00;;;;;;;10.28;65.77;99904.59;5136878;27;20470;-40
2021/05/22 02:54:06;;;;;;;2.17;0.80;;;;;;;10.26;66.70;99906.75;5137063;27;20156;-40
2021/05/22 02:56:32;;;;;;;4.97;1.00;;;;;;;10.24;67.50;99898.06;5136654;27;20056;-40
2021/05/22 02:58:58;;;;;;;3.60;1.10;;;;;;;10.23;65.96;99889.09;5136411;27;20034;-40
2021/05/22 03:01:25;;;;;;;5.43;1.05;;;;;;;10.23;66.89;99891.81;5136832;27;20027;-39
2021/05/22 03:03:54;;;;;;;4.05;1.20;;;;;;;10.23;66.49;99902.63;5136407;27;20027;-40
2021/05/22 03:06:19;;;;;;;4.68;1.00;;;;;;;10.25;66.39;99900.53;5136503;27;20036;-40
2021/05/22 03:08:47;;;;;;;4.90;0.95;;;;;;;10.26;66.63;99898.63;5136201;27;20364;-40
2021/05/22 03:11:14;;;;;;;4.47;0.90;;;;;;;10.25;66.94;99894.31;5136424;27;20023;-39
2021/05/22 03:13:40;;;;;;;5.18;1.20;;;;;;;10.24;66.96;99887.25;5136252;27;20031;-40
2021/05/22 03:16:05;;;;;;;6.78;1.08;;;;;;;10.25;66.94;99884.31;5136128;27;20033;-40
2021/05/22 03:18:30;;;;;;;5.53;0.77;;;;;;;10.22;67.09;99870.44;5136332;27;20023;-40
2021/05/22 03:20:56;;;;;;;5.77;1.00;;;;;;;10.23;67.16;99872.09;5136308;27;20322;-40
2021/05/22 03:23:21;;;;;;;3.17;1.10;;;;;;;10.18;67.39;99870.13;5136114;27;20080;-39
2021/05/22 03:25:47;;;;;;;6.63;1.43;;;;;;;10.16;67.41;99868.78;5136856;27;20084;-39
2021/05/22 03:28:12;;;;;;;5.23;0.90;;;;;;;10.20;67.46;99870.72;5136146;27;20030;-39
2021/05/22 03:30:38;;;;;;;4.17;0.93;;;;;;;10.18;67.40;99875.53;5136966;27;20031;-39
2021/05/22 03:33:03;;;;;;;3.60;1.40;;;;;;;10.21;67.76;99899.38;5135750;27;20032;-40
2021/05/22 03:35:28;;;;;;;6.33;1.17;;;;;;;10.17;67.29;99876.63;5136353;27;20031;-40
2021/05/22 03:37:54;;;;;;;5.77;0.97;;;;;;;10.20;67.85;99880.69;5134243;27;20076;-40
2021/05/22 03:40:19;;;;;;;8.27;1.40;;;;;;;10.20;67.75;99894.19;5136446;27;20027;-38
2021/05/22 03:42:44;;;;;;;5.37;1.10;;;;;;;10.14;68.42;99885.22;5136061;27;20027;-38
2021/05/22 03:45:10;;;;;;;4.37;1.23;;;;;;;10.14;68.64;99865.47;5135901;27;20031;-38
2021/05/22 03:47:36;;;;;;;4.47;1.17;;;;;;;10.13;68.42;99874.66;5135830;27;20039;-38
2021/05/22 03:50:02;;;;;;;2.03;0.93;;;;;;;10.13;69.01;99875.47;5135649;27;20118;-38
2021/05/22 03:52:27;;;;;;;9.40;1.50;;;;;;;10.09;68.96;99877.03;5135575;27;20038;-38
2021/05/22 03:54:53;;;;;;;5.33;1.90;;;;;;;10.06;69.44;99867.56;5135779;27;20486;-39
2021/05/22 03:57:18;;;;;;;3.40;1.40;;;;;;;10.09;69.42;99870.81;5135519;27;20023;-38
2021/05/22 03:59:43;;;;;;;4.20;1.40;;;;;;;10.10;69.46;99875.16;5136057;27;20027;-39
2021/05/22 04:02:09;;;;;;;3.43;1.40;;;;;;;10.10;69.01;99875.16;5135146;27;20030;-39
2021/05/22 04:04:34;;;;;;;5.97;1.93;;;;;;;10.07;69.28;99871.91;5135875;27;20042;-38
2021/05/22 04:06:59;;;;;;;4.20;1.27;;;;;;;10.09;69.17;99860.84;5135269;27;20458;-39
2021/05/22 04:09:24;;;;;;;8.07;1.90;;;;;;;10.13;69.15;99866.56;5135345;27;20034;-39
2021/05/22 04:11:50;;;;;;;4.80;1.37;;;;;;;10.11;69.73;99874.94;5135423;27;20041;-39
2021/05/22 04:14:15;;;;;;;5.87;1.43;;;;;;;10.10;69.38;99856.25;5135538;27;20109;-39
2021/05/22 04:16:41;;;;;;;6.43;1.40;;;;;;;10.07;69.24;99871.91;5133959;27;20039;-39
2021/05/22 04:19:06;;;;;;;6.20;1.40;;;;;;;10.08;69.47;99864.63;5134533;27;20062;-39
2021/05/22 04:21:31;;;;;;;7.57;1.93;;;;;;;10.11;68.68;99869.53;5134703;27;20019;-39
2021/05/22 04:23:57;;;;;;;6.77;1.50;;;;;;;10.12;69.24;99868.44;5135139;27;20099;-39
2021/05/22 04:26:22;;;;;;;8.87;1.57;;;;;;;10.09;69.34;99868.94;5134398;27;20025;-39
2021/05/22 04:28:47;;;;;;;3.87;1.30;;;;;;;10.13;69.48;99871.97;5133418;27;20385;-38
2021/05/22 04:31:13;;;;;;;7.23;1.77;;;;;;;10.10;69.93;99875.97;5135109;27;20043;-38
2021/05/22 04:33:38;;;;;;;5.37;1.50;;;;;;;10.11;69.84;99880.31;5135558;27;20347;-39
2021/05/22 04:36:04;;;;;;;5.90;1.50;;;;;;;10.12;70.31;99883.84;5134766;27;20034;-38
2021/05/22 04:38:29;;;;;;;5.93;1.77;;;;;;;10.09;69.38;99879.75;5134353;27;20276;-38
2021/05/22 04:40:55;;;;;;;8.20;2.33;;;;;;;10.12;69.95;99884.66;5134731;27;20042;-39
2021/05/22 04:43:20;;;;;;;4.47;1.33;;;;;;;10.07;70.41;99877.31;5135061;27;20114;-39
2021/05/22 04:45:46;;;;;;;5.83;1.80;;;;;;;10.06;70.37;99883.78;5134278;27;20019;-38
2021/05/22 04:48:11;;;;;;;6.37;1.73;;;;;;;10.09;70.50;99885.16;5134593;27;20050;-38
2021/05/22 04:50:37;;;;;;;6.70;1.40;;;;;;;10.10;69.95;99884.06;5134489;27;20027;-39
2021/05/22 04:53:03;;;;;;;3.95;1.30;;;;;;;10.09;70.85;99879.75;5134361;27;20050;-39
2021/05/22 04:55:28;;;;;;;3.80;1.47;;;;;;;10.11;70.66;99904.63;5134914;27;20455;-39
2021/05/22 04:57:53;;;;;;;6.37;1.60;;;;;;;10.08;71.43;99883.53;5134568;27;20304;-39
2021/05/22 05:00:19;;;;;;;4.10;1.10;;;;;;;10.06;71.61;99897.28;5134514;27;20023;-38
2021/05/22 05:02:45;;;;;;;7.53;2.00;;;;;;;10.09;72.41;99895.13;5134317;27;20022;-38
2021/05/22 05:05:11;;;;;;;6.53;1.50;;;;;;;10.06;72.40;99896.47;5134481;27;20031;-38
2021/05/22 05:07:39;;;;;;;;;;;;;;;10.12;72.72;99900.88;5134474;27;20064;-39
2021/05/22 05:10:04;;;;;;;;;;;;;;;10.13;72.22;99891.69;5134757;27;20282;-39
2021/05/22 05:12:30;;;;;;;5.90;1.30;;;;;;;10.00;72.86;99898.28;5132832;27;19918;-39
2021/05/22 05:14:55;;;;;;;7.47;1.47;;;;;;;9.99;73.26;99902.03;5133987;27;20039;-39
2021/05/22 05:17:20;;;;;;;4.83;1.33;;;;;;;10.02;73.14;99901.56;5134180;27;20031;-39
2021/05/22 05:19:45;;;;;;;10.87;1.63;;;;;;;10.05;73.10;99892.09;5134750;27;20114;-39
2021/05/22 05:22:11;;;;;;;8.33;1.57;;;;;;;10.01;73.35;99905.31;5134166;27;20027;-38
2021/05/22 05:24:36;;;;;;;6.77;1.70;;;;;;;9.97;74.86;99904.19;5134446;27;20110;-39
2021/05/22 05:27:01;;;;;;;7.80;1.60;;;;;;;9.96;75.06;99910.66;5134140;27;20035;-38
2021/05/22 05:29:27;;;;;;;5.30;1.50;;;;;;;9.90;75.00;99903.53;5134448;27;20035;-39
2021/05/22 05:31:52;;;;;;;7.37;1.67;;;;;;;9.90;74.73;99908.94;5134063;27;20031;-39
2021/05/22 05:34:17;;;;;;;6.53;1.40;;;;;;;9.87;75.12;99909.44;5134373;27;20368;-38
2021/05/22 05:36:43;;;;;;;7.77;1.80;;;;;;;9.85;75.84;99911.56;5134601;28;20477;-38
2021/05/22 05:39:10;;;;;;;8.00;1.70;;;;;;;9.86;75.69;99918.63;5136816;27;20027;-38
2021/05/22 05:41:36;;;;;;;5.30;1.60;;;;;;;9.80;76.80;99916.91;5137812;27;20048;-38
2021/05/22 05:44:01;;;;;;;4.25;1.33;;;;;;;9.81;76.92;99929.34;5138134;27;20030;-38
2021/05/22 05:46:26;;;;;;;4.73;1.47;;;;;;;9.78;76.40;99917.16;5138526;27;20023;-38
2021/05/22 05:48:52;;;;;;;4.40;1.23;;;;;;;9.85;76.25;99916.16;5138610;27;20122;-38
2021/05/22 05:51:17;;;;;;;6.43;1.70;;;;;;;9.84;77.04;99925.31;5137696;27;20033;-38
2021/05/22 05:53:42;;;;;;;3.67;1.13;;;;;;;9.85;76.13;99919.66;5138451;27;20027;-38
2021/05/22 05:56:08;;;;;;;7.37;1.80;;;;;;;9.90;76.18;99918.91;5138707;27;20043;-39
2021/05/22 05:58:33;;;;;;;4.70;0.93;;;;;;;9.95;75.88;99924.38;5137888;27;20031;-39
2021/05/22 06:00:59;;;;;;;4.17;1.50;;;;;;;9.94;76.24;99933.56;5138054;27;20463;-39
2021/05/22 06:03:26;;;;;;;7.97;1.73;;;;;;;9.93;76.39;99929.25;5137696;27;20106;-38
2021/05/22 06:05:52;;;;;;;6.10;1.25;;;;;;;9.93;76.24;99931.94;5138127;27;20027;-38
2021/05/22 06:08:18;;;;;;;4.53;1.20;;;;;;;9.91;76.72;99947.59;5137547;27;20441;-38
2021/05/22 06:10:45;;;;;;;3.75;1.42;;;;;;;9.87;76.03;99936.44;5138187;27;20152;-39
2021/05/22 06:13:10;;;;;;;5.10;1.20;;;;;;;9.89;76.52;99947.00;5137848;27;20404;-39
2021/05/22 06:15:35;;;;;;;7.30;1.77;;;;;;;9.80;76.71;99949.28;5137362;27;20035;-39
2021/05/22 06:18:01;;;;;;;7.57;1.60;;;;;;;9.84;77.29;99942.34;5137262;27;20035;-39
2021/05/22 06:20:27;;;;;;;5.00;1.50;;;;;;;9.85;77.50;99949.38;5137805;27;20019;-39
2021/05/22 06:22:53;;;;;;;5.47;1.42;;;;;;;9.88;77.47;99932.69;5136049;27;20055;-39
2021/05/22 06:25:18;;;;;;;4.97;1.38;;;;;;;9.94;76.84;99947.06;5137847;27;20023;-40
2021/05/22 06:27:44;;;;;;;7.17;1.50;;;;;;;9.95;76.80;99941.41;5137351;27;20055;-40
2021/05/22 06:30:10;;;;;;;6.10;1.37;;;;;;;9.91;76.39;99947.59;5137930;27;20050;-39
2021/05/22 06:32:36;;;;;;;;;;;;;;;9.99;76.50;99953.34;5138168;27;20048;-39
2021/05/22 06:35:02;;;;;;;4.70;1.27;;;;;;;9.88;77.56;99954.28;5137402;27;20252;-39
2021/05/22 06:37:27;;;;;;;7.80;1.45;;;;;;;9.88;78.34;99962.38;5137329;27;20023;-39
2021/05/22 06:39:53;;;;;;;10.60;1.80;;;;;;;9.88;77.34;99951.59;5137911;27;20019;-39
2021/05/22 06:42:20;;;;;;;4.82;1.30;;;;;;;9.88;78.91;99964.28;5136982;27;20060;-39
2021/05/22 06:45:01;;;;;;;6.00;1.55;;;;;;;9.91;77.89;99952.97;5137168;27;20409;-39
2021/05/22 06:47:27;;;;;;;3.92;1.10;;;;;;;9.96;77.79;99966.56;5136416;27;20482;-39
2021/05/22 06:49:52;;;;;;;5.10;1.03;;;;;;;9.97;77.42;99960.91;5136092;27;20027;-39
2021/05/22 06:52:17;;;;;;;3.80;1.10;;;;;;;9.98;77.25;99964.41;5136605;27;20038;-39
2021/05/22 06:54:43;;;;;;;5.17;1.37;;;;;;;9.99;77.41;99976.84;5136812;27;20023;-39
2021/05/22 06:57:08;;;;;;;5.77;1.20;;;;;;;9.98;77.89;99981.44;5136669;27;20095;-39
2021/05/22 06:59:34;;;;;;;6.37;1.30;;;;;;;9.97;78.58;99985.22;5137111;27;20080;-39
2021/05/22 07:01:59;;;;;;;4.03;1.48;;;;;;;9.98;78.25;99975.22;5137194;27;20031;-39
2021/05/22 07:04:24;;;;;;;5.47;1.40;;;;;;;9.97;79.18;99981.69;5136601;27;20023;-40
2021/05/22 07:06:50;;;;;;;3.27;1.10;;;;;;;9.94;78.81;99980.28;5136577;27;20293;-40
2021/05/22 07:09:15;;;;;;;4.03;1.17;;;;;;;9.97;78.66;99981.69;5137101;27;20439;-40
2021/05/22 07:11:42;;;;;;;3.37;1.00;;;;;;;9.95;79.10;99987.31;5136493;27;20034;-40
2021/05/22 07:14:07;;;;;;;;;;;;;;;10.02;78.99;99997.97;5136907;27;20062;-39
2021/05/22 07:16:32;;;;;;;3.67;1.00;;;;;;;9.96;79.71;99998.97;5136131;27;19965;-39
2021/05/22 07:18:57;;;;;;;3.60;1.17;;;;;;;9.95;79.94;100008.09;5136346;27;20069;-39
2021/05/22 07:21:23;;;;;;;5.20;1.30;;;;;;;9.94;80.85;100011.88;5136720;27;20031;-39
2021/05/22 07:23:48;;;;;;;5.97;1.13;;;;;;;9.95;80.44;100000.81;5135697;27;20023;-40
2021/05/22 07:26:13;;;;;;;5.57;1.60;;;;;;;9.90;81.14;99998.03;5135691;27;20062;-40
2021/05/22 07:28:39;;;;;;;3.53;1.13;;;;;;;9.94;80.43;100010.00;5136378;27;20087;-40
2021/05/22 07:31:04;;;;;;;4.13;1.13;;;;;;;9.93;81.48;100011.06;5135721;27;20027;-40
2021/05/22 07:33:36;;;;;;;6.50;1.57;;;;;;;9.97;81.32;100016.81;5134446;27;20149;-39
2021/05/22 07:36:01;;;;;;;5.20;1.33;;;;;;;9.95;82.43;100011.63;5136073;27;20023;-40
2021/05/22 07:38:27;;;;;;;2.83;1.08;;;;;;;10.00;81.30;100021.69;5136535;27;20034;-39
2021/05/22 07:40:52;;;;;;;2.83;1.10;;;;;;;10.00;81.42;100016.28;5136177;27;20070;-39
2021/05/22 07:43:19;;;;;;;5.13;1.20;;;;;;;10.02;81.29;100023.09;5135431;27;20031;-40
2021/05/22 07:45:45;;;;;;;4.18;1.30;;;;;;;10.02;81.90;100019.59;5135760;27;20102;-40
2021/05/22 07:48:10;;;;;;;4.25;1.25;;;;;;;10.04;82.67;100028.25;5135947;27;20063;-39
2021/05/22 07:50:36;;;;;;;5.30;1.20;;;;;;;10.00;83.01;100024.41;5135681;27;20023;-39
2021/05/22 07:53:02;;;;;;;3.80;1.10;;;;;;;10.01;82.81;100017.94;5135515;27;20027;-39
2021/05/22 07:55:28;;;;;;;4.70;1.33;;;;;;;9.98;82.45;100018.44;5135344;27;20027;-40
2021/05/22 07:57:53;;;;;;;3.47;0.90;;;;;;;9.98;83.22;100030.06;5134304;27;20034;-40
2021/05/22 08:00:19;;;;;;;4.73;1.00;;;;;;;9.94;82.48;100039.72;5135788;27;20046;-39
2021/05/22 08:02:44;;;;;;;3.38;1.20;;;;;;;9.89;82.38;100039.63;5134631;27;20120;-40
2021/05/22 08:05:12;;;;;;;4.77;1.70;;;;;;;9.87;82.97;100036.38;5135599;27;20030;-40
2021/05/22 08:07:37;;;;;;;3.63;1.00;;;;;;;9.84;82.72;100039.53;5135619;27;20023;-40
2021/05/22 08:10:04;;;;;;;3.93;1.30;;;;;;;9.89;82.81;100047.72;5135306;27;20042;-41
2021/05/22 08:12:29;;;;;;;1.88;0.80;;;;;;;9.85;83.76;100046.56;5135674;27;20372;-40
2021/05/22 08:14:54;;;;;;;3.57;1.20;;;;;;;9.92;82.78;100041.84;5135771;27;20026;-40
2021/05/22 08:17:20;;;;;;;3.03;1.03;;;;;;;9.90;82.90;100048.53;5135169;27;20023;-40
2021/05/22 08:19:46;;;;;;;3.47;1.10;;;;;;;9.92;82.42;100055.34;5135634;27;20023;-40
2021/05/22 08:22:12;;;;;;;4.10;1.20;;;;;;;9.96;83.30;100052.97;5135329;27;20487;-39
2021/05/22 08:24:37;;;;;;;3.73;1.07;;;;;;;9.94;83.78;100053.22;5135246;27;20027;-40
2021/05/22 08:27:03;;;;;;;4.67;1.67;;;;;;;9.99;83.81;100050.59;5135101;27;20027;-40
2021/05/22 08:29:28;;;;;;;3.80;1.10;;;;;;;10.02;84.14;100062.78;5134917;27;20646;-40
2021/05/22 08:31:54;;;;;;;3.33;1.03;;;;;;;10.05;82.95;100054.19;5135115;27;20031;-40
2021/05/22 08:34:19;;;;;;;3.50;1.47;;;;;;;10.10;83.11;100065.06;5134972;27;20444;-40
2021/05/22 08:36:44;;;;;;;5.20;1.37;;;;;;;10.14;84.22;100070.81;5135297;27;20453;-40
2021/05/22 08:39:10;;;;;;;3.80;1.13;;;;;;;10.16;83.54;100053.28;5134693;27;20019;-39
2021/05/22 08:41:37;;;;;;;2.93;1.10;;;;;;;10.17;82.16;100062.22;5134394;27;20101;-40
2021/05/22 08:44:04;;;;;;;4.60;1.25;;;;;;;10.19;82.30;100070.88;5134983;27;20034;-40
2021/05/22 08:46:30;;;;;;;5.05;1.63;;;;;;;10.25;82.29;100067.25;5135065;27;20023;-40
2021/05/22 08:48:56;;;;;;;3.92;1.10;;;;;;;10.26;81.82;100066.16;5135671;27;20053;-40
2021/05/22 08:51:22;;;;;;;7.13;1.50;;;;;;;10.31;82.45;100066.25;5134658;27;20027;-40
2021/05/22 08:53:48;;;;;;;1.53;0.80;;;;;;;10.39;82.04;100073.09;5135158;27;20160;-40
2021/05/22 08:56:13;;;;;;;3.95;1.10;;;;;;;10.39;82.37;100064.97;5134747;27;20057;-39
2021/05/22 08:58:38;;;;;;;5.03;1.10;;;;;;;10.43;81.83;100072.34;5134935;27;20023;-39
2021/05/22 09:01:05;;;;;;;3.90;0.82;;;;;;;10.41;81.56;100088.00;5134738;27;20466;-39
2021/05/22 09:03:31;;;;;;;4.60;1.10;;;;;;;10.42;80.89;100075.31;5134381;27;20023;-39
2021/05/22 09:05:57;;;;;;;3.42;1.10;;;;;;;10.39;80.94;100095.53;5134600;27;20092;-39
2021/05/22 09:08:22;;;;;;;5.13;1.25;;;;;;;10.43;80.55;100091.28;5134312;27;20102;-39
2021/05/22 09:10:52;;;;;;;2.53;0.80;;;;;;;10.46;81.16;100090.78;5134861;27;20118;-39
2021/05/22 09:13:22;;;;;;;5.25;1.20;;;;;;;10.50;81.66;100097.34;5134803;27;20371;-39
2021/05/22 09:15:53;;;;;;;3.67;1.30;;;;;;;10.58;80.55;100094.19;5134964;27;20153;-40
2021/05/22 09:18:21;;;;;;;3.78;1.13;;;;;;;10.61;81.48;100092.06;5133972;27;20034;-40
2021/05/22 09:20:51;;;;;;;3.97;1.20;;;;;;;10.69;80.60;100105.16;5134553;27;20030;-40
2021/05/22 09:23:21;;;;;;;2.85;1.05;;;;;;;10.71;81.36;100092.19;5134536;27;20027;-39
2021/05/22 09:25:51;;;;;;;4.43;1.20;;;;;;;10.77;81.09;100085.78;5134689;27;20447;-39
2021/05/22 09:28:19;;;;;;;2.80;1.10;;;;;;;10.75;80.37;100096.06;5134151;27;20055;-39
2021/05/22 09:30:48;;;;;;;2.90;0.90;;;;;;;10.79;81.52;100103.41;5134494;27;20024;-39
2021/05/22 09:33:23;;;;;;;3.33;1.00;;;;;;;10.80;80.49;100115.03;5133972;27;20117;-41
2021/05/22 09:35:56;;;;;;;3.63;1.15;;;;;;;10.78;81.03;100092.81;5134067;27;20031;-40
2021/05/22 09:38:37;;;;;;;2.97;0.95;;;;;;;10.81;80.68;100114.78;5133748;27;20026;-40
2021/05/22 09:41:27;;;;;;;4.75;1.33;;;;;;;10.86;81.20;100122.16;5134050;27;20424;-40
2021/05/22 09:44:15;;;;;;;4.72;1.02;;;;;;;10.90;80.00;100114.38;5134290;27;20110;-40
2021/05/22 09:46:43;;;;;;;3.92;1.20;;;;;;;10.93;81.10;100133.63;5134729;27;20029;-40
2021/05/22 09:49:09;;;;;;;2.55;1.00;;;;;;;10.93;79.63;100133.63;5134301;27;20046;-40
2021/05/22 09:52:11;;;;;;;4.18;1.00;;;;;;;11.02;80.01;100132.09;5134220;27;20039;-40
2021/05/22 09:54:53;;;;;;;4.03;1.00;;;;;;;11.09;80.06;100126.50;5133915;27;20027;-40
2021/05/22 09:57:42;;;;;;;6.13;1.40;;;;;;;11.15;80.35;100122.78;5133616;27;20084;-39
2021/05/22 10:00:08;;;;;;;3.70;1.17;;;;;;;11.18;79.57;100130.41;5134343;27;20492;-39
2021/05/22 10:02:49;;;;;;;2.53;0.90;;;;;;;11.20;78.80;100138.28;5133813;27;20066;-39
2021/05/22 10:05:35;;;;;;;3.42;0.90;;;;;;;11.12;79.24;100142.22;5134479;27;20325;-39
2021/05/22 10:08:03;;;;;;;2.00;0.80;;;;;;;11.08;79.22;100149.22;5134226;27;20027;-39
2021/05/22 10:10:46;;;;;;;2.75;1.23;;;;;;;11.13;79.64;100148.47;5134194;27;20359;-40
2021/05/22 10:13:19;;;;;;;3.20;1.10;;;;;;;11.14;80.00;100150.94;5134032;27;20079;-39
2021/05/22 10:15:47;;;;;;;3.30;1.00;;;;;;;11.14;80.00;100155.53;5133938;27;20110;-40
2021/05/22 10:18:13;;;;;;;1.83;0.85;;;;;;;11.17;79.88;100150.41;5133575;27;20047;-40
2021/05/22 10:20:38;;;;;;;2.65;1.00;;;;;;;11.26;80.47;100148.09;5133853;27;20391;-39
2021/05/22 10:23:05;;;;;;;2.78;1.02;;;;;;;11.31;78.99;100151.66;5133610;27;20050;-40
2021/05/22 10:25:31;;;;;;;3.03;0.95;;;;;;;11.30;79.89;100179.81;5136075;27;20023;-39
2021/05/22 10:27:58;;;;;;;2.90;1.08;;;;;;;11.25;80.22;100168.09;5137708;27;20466;-40
2021/05/22 10:30:24;;;;;;;2.47;1.30;;;;;;;11.26;81.17;100180.56;5137264;27;20030;-39
2021/05/22 10:32:49;;;;;;;2.60;1.17;;;;;;;11.23;80.05;100181.09;5137125;27;20015;-39
2021/05/22 10:35:24;;;;;;;2.75;1.10;;;;;;;11.16;80.57;100175.03;5136957;27;20027;-39
2021/05/22 10:37:51;;;;;;;3.00;1.17;;;;;;;11.11;81.15;100202.84;5135960;27;20482;-39
2021/05/22 10:40:18;;;;;;;3.42;1.25;;;;;;;11.03;81.84;100195.16;5136972;27;20039;-39
2021/05/22 10:42:55;;;;;;;6.45;1.30;;;;;;;11.03;82.30;100203.28;5136871;27;20038;-39
2021/05/22 10:45:27;;;;;;;2.85;1.10;;;;;;;10.98;81.82;100189.66;5137221;27;20023;-39
2021/05/22 10:47:55;;;;;;;3.53;1.38;;;;;;;10.90;82.12;100199.03;5136611;27;20067;-39
2021/05/22 10:50:47;;;;;;;3.00;1.30;;;;;;;10.92;83.52;100213.13;5136964;27;20118;-40
2021/05/22 10:53:34;;;;;;;2.42;1.10;;;;;;;10.92;83.91;100204.19;5137180;27;20039;-40
2021/05/22 10:56:13;;;;;;;3.95;1.20;;;;;;;10.89;83.30;100215.53;5136989;27;20384;-39
2021/05/22 10:58:57;;;;;;;2.30;1.15;;;;;;;10.88;83.63;100222.78;5136415;27;20034;-39
2021/05/22 11:01:23;;;;;;;4.47;1.20;;;;;;;10.93;83.86;100232.88;5136809;27;20030;-39
2021/05/22 11:04:14;;;;;;;3.40;1.20;;;;;;;10.94;83.86;100221.81;5136465;27;20455;-39
2021/05/22 11:06:42;;;;;;;5.25;1.50;;;;;;;11.02;83.78;100239.50;5136887;27;20027;-40
2021/05/22 11:09:31;;;;;;;2.92;1.60;;;;;;;11.06;84.67;100246.06;5136365;27;20175;-40
2021/05/22 11:11:58;;;;;;;2.83;1.83;;;;;;;11.07;84.89;100253.09;5136297;27;20088;-40
2021/05/22 11:14:44;;;;;;;3.78;1.92;;;;;;;11.05;84.64;100257.94;5136282;27;20023;-40
2021/05/22 11:17:22;;;;;;;3.15;1.88;;;;;;;11.06;84.33;100255.00;5136325;27;20031;-40
2021/05/22 11:19:59;;;;;;;5.50;2.35;;;;;;;11.06;84.95;100263.09;5135519;27;20079;-40
2021/05/22 11:22:25;;;;;;;3.90;2.50;;;;;;;11.11;85.69;100275.88;5136522;27;20497;-39
2021/05/22 11:25:05;;;;;;;3.10;2.00;;;;;;;11.09;85.23;100275.34;5136700;27;20027;-39
2021/05/22 11:27:51;;;;;;;2.08;1.55;;;;;;;11.03;84.49;100285.25;5136101;27;20383;-39
2021/05/22 11:30:18;;;;;;;2.67;1.70;;;;;;;11.01;85.02;100291.97;5135893;27;20387;-40
2021/05/22 11:32:52;;;;;;;;;;;;;;;11.13;84.91;100298.13;5136182;27;20062;-39
2021/05/22 11:35:30;;;;;;;3.55;1.80;;;;;;;11.22;86.10;100299.31;5136466;27;19912;-40
2021/05/22 11:37:57;;;;;;;3.38;1.80;;;;;;;11.22;84.66;100303.91;5135624;27;20034;-39